Time;durP1;ratioP1;P1;durP2;ratioP2;P2;SDS_P1;SDS_P2;PMS_P1;PMS_P2;Temp;Humidity;BMP_temperature;BMP_pressure;BME280_temperature;BME280_humidity;BME280_pressure;Samples;Min_cycle;Max_cycle;Signal;HPM_P1;HPM_P2
2023/04/18 00:01:50;;;;;;;24.75;22.38;;;;;;;13.33;66.78;100867.56;5004671;28;97284;-81
2023/04/18 00:04:16;;;;;;;24.63;22.52;;;;;;;13.34;66.91;100864.84;5012162;28;101420;-82
2023/04/18 00:06:42;;;;;;;25.90;23.42;;;;;;;13.34;66.54;100872.75;5013006;28;97311;-82
2023/04/18 00:09:07;;;;;;;24.17;21.88;;;;;;;13.30;67.03;100867.69;5013101;28;96846;-81
2023/04/18 00:11:33;;;;;;;25.20;22.92;;;;;;;13.33;66.85;100876.31;5045534;27;96948;-81
2023/04/18 00:13:59;;;;;;;24.42;22.02;;;;;;;13.24;66.79;100868.72;5039427;27;101237;-81
2023/04/18 00:16:44;;;;;;;25.10;22.77;;;;;;;13.31;66.21;100883.44;5008438;27;101224;-81
2023/04/18 00:19:29;;;;;;;25.23;22.95;;;;;;;13.34;67.43;100885.09;5039587;27;97296;-81
2023/04/18 00:21:54;;;;;;;25.33;22.92;;;;;;;13.27;66.78;100871.28;5012464;28;96960;-81
2023/04/18 00:24:20;;;;;;;24.98;22.63;;;;;;;13.14;66.93;100860.28;4994341;28;101556;-82
2023/04/18 00:26:45;;;;;;;25.27;22.98;;;;;;;13.25;66.67;100874.84;5027917;28;97512;-81
2023/04/18 00:29:11;;;;;;;25.45;23.25;;;;;;;13.25;67.27;100877.50;5013611;28;97480;-81
2023/04/18 00:31:36;;;;;;;25.45;23.17;;;;;;;13.20;67.07;100876.78;5010456;28;97449;-81
2023/04/18 00:34:02;;;;;;;25.73;23.42;;;;;;;13.12;67.38;100859.50;5005636;28;101477;-81
2023/04/18 00:36:28;;;;;;;23.98;21.83;;;;;;;13.20;67.55;100872.38;5008708;28;97489;-81
2023/04/18 00:38:53;;;;;;;25.90;23.65;;;;;;;13.21;67.17;100873.25;5001063;28;96808;-81
2023/04/18 00:41:20;;;;;;;26.00;23.80;;;;;;;13.17;67.41;100869.84;5011105;28;97204;-81
2023/04/18 00:43:46;;;;;;;26.75;24.05;;;;;;;13.09;67.37;100883.31;4993722;28;101593;-81
2023/04/18 00:46:11;;;;;;;25.08;23.02;;;;;;;12.98;67.10;100860.91;5006086;28;101852;-81
2023/04/18 00:48:38;;;;;;;27.52;24.92;;;;;;;12.99;67.70;100854.69;4995110;28;96795;-81
2023/04/18 00:51:05;;;;;;;26.17;23.70;;;;;;;13.02;67.50;100865.13;5001431;27;97788;-81
2023/04/18 00:53:30;;;;;;;26.67;24.35;;;;;;;12.87;68.34;100838.41;5019740;28;101599;-82
2023/04/18 00:55:56;;;;;;;27.33;24.77;;;;;;;13.03;67.43;100851.03;5011918;28;98257;-82
2023/04/18 00:58:23;;;;;;;24.60;22.40;;;;;;;13.10;67.13;100865.72;5009746;28;96791;-81
2023/04/18 01:00:50;;;;;;;26.60;24.25;;;;;;;12.91;67.82;100849.69;5026728;28;97447;-82
2023/04/18 01:03:17;;;;;;;26.02;23.48;;;;;;;13.01;67.80;100853.75;5008463;28;98233;-82
2023/04/18 01:05:45;;;;;;;27.23;24.73;;;;;;;12.99;67.67;100860.81;5039809;27;101512;-82
2023/04/18 01:08:11;;;;;;;26.75;24.05;;;;;;;13.02;67.55;100849.31;5020909;27;97365;-81
2023/04/18 01:10:36;;;;;;;26.63;24.15;;;;;;;13.04;67.93;100866.81;5039378;27;97425;-82
2023/04/18 01:13:15;;;;;;;27.13;24.40;;;;;;;12.98;67.70;100845.94;5028147;27;101241;-81
2023/04/18 01:15:42;;;;;;;26.67;24.27;;;;;;;13.02;68.12;100858.09;5038632;27;98035;-81
2023/04/18 01:18:08;;;;;;;26.27;23.88;;;;;;;13.03;67.72;100859.81;4995111;28;97057;-81
2023/04/18 01:24:16;;;;;;;27.42;24.92;;;;;;;12.94;67.77;100864.53;5021881;27;97739;-82
2023/04/18 01:26:44;;;;;;;26.13;23.83;;;;;;;12.94;67.54;100867.16;4994512;28;101322;-81
2023/04/18 01:29:10;;;;;;;27.38;25.08;;;;;;;12.86;68.10;100873.59;5022140;28;98407;-81
2023/04/18 01:31:37;;;;;;;27.17;24.70;;;;;;;12.90;68.16;100867.28;5042544;27;97538;-81
2023/04/18 01:34:03;;;;;;;26.38;23.85;;;;;;;12.82;68.46;100860.56;5026040;27;98331;-81
2023/04/18 01:36:29;;;;;;;27.58;25.17;;;;;;;12.79;68.38;100852.75;5007335;28;101394;-81
2023/04/18 01:38:55;;;;;;;27.15;24.75;;;;;;;12.91;68.45;100868.13;5010237;28;97283;-82
2023/04/18 01:41:21;;;;;;;25.88;23.58;;;;;;;12.89;68.25;100862.09;5012082;28;97373;-82
2023/04/18 01:43:47;;;;;;;25.40;23.20;;;;;;;12.93;67.71;100866.31;5048284;27;100872;-82
2023/04/18 01:46:12;;;;;;;25.58;23.20;;;;;;;12.88;68.03;100862.97;5005910;28;101548;-82
2023/04/18 01:48:38;;;;;;;26.35;24.10;;;;;;;12.81;68.11;100853.59;4991033;27;97333;-82
2023/04/18 01:51:04;;;;;;;26.58;23.77;;;;;;;12.76;68.51;100853.72;5009693;28;97282;-81
2023/04/18 01:53:30;;;;;;;26.63;24.27;;;;;;;12.71;68.36;100841.63;5009516;28;101861;-81
2023/04/18 01:55:57;;;;;;;26.33;23.95;;;;;;;12.81;68.00;100856.22;5014863;28;102034;-81
2023/04/18 01:58:24;;;;;;;26.20;23.80;;;;;;;12.71;67.93;100839.84;5011846;28;97278;-81
2023/04/18 02:00:51;;;;;;;26.38;23.75;;;;;;;12.81;67.45;100853.59;5027357;28;97620;-81
2023/04/18 02:03:17;;;;;;;24.52;22.23;;;;;;;12.86;67.70;100863.03;5023590;28;101862;-83
2023/04/18 02:05:42;;;;;;;25.58;23.35;;;;;;;12.82;68.63;100863.19;5040137;27;98356;-81
2023/04/18 02:08:10;;;;;;;25.50;23.48;;;;;;;12.77;68.34;100857.22;5002103;28;97096;-81
2023/04/18 02:10:36;;;;;;;26.45;23.90;;;;;;;12.73;68.72;100855.63;5014468;28;97171;-81
2023/04/18 02:13:03;;;;;;;25.20;23.20;;;;;;;12.79;68.42;100865.94;5028454;27;100231;-82
2023/04/18 02:15:29;;;;;;;24.63;22.45;;;;;;;12.72;68.92;100864.44;5001205;28;100540;-81
2023/04/18 02:17:54;;;;;;;25.17;22.95;;;;;;;12.70;68.03;100853.94;5026316;28;97298;-81
2023/04/18 02:20:22;;;;;;;24.05;22.13;;;;;;;12.76;68.20;100856.34;5014988;28;96968;-81
2023/04/18 02:22:47;;;;;;;25.50;23.27;;;;;;;12.68;68.41;100847.84;5010817;27;98212;-81
2023/04/18 02:25:13;;;;;;;25.83;23.52;;;;;;;12.71;68.48;100860.06;5022941;27;101508;-81
2023/04/18 02:27:39;;;;;;;25.45;23.30;;;;;;;12.74;68.09;100865.22;5037347;27;97167;-81
2023/04/18 02:30:05;;;;;;;24.52;22.52;;;;;;;12.66;68.44;100853.19;4990669;28;96886;-82
2023/04/18 02:32:32;;;;;;;24.30;22.08;;;;;;;12.71;68.45;100858.28;5010713;28;102107;-81
2023/04/18 02:34:58;;;;;;;24.40;22.30;;;;;;;12.59;68.83;100845.53;5009499;28;101277;-82
2023/04/18 02:37:23;;;;;;;24.35;22.35;;;;;;;12.74;68.55;100862.59;4997092;28;96821;-82
2023/04/18 02:39:49;;;;;;;24.38;22.10;;;;;;;12.70;68.59;100859.22;5014179;27;97712;-80
2023/04/18 02:42:15;;;;;;;24.83;22.60;;;;;;;12.68;68.91;100859.28;5023097;27;101175;-81
2023/04/18 02:44:40;;;;;;;23.80;21.88;;;;;;;12.70;68.74;100867.09;5014044;28;101314;-81
2023/04/18 02:47:07;;;;;;;23.65;21.65;;;;;;;12.66;68.21;100849.69;5013622;28;97277;-81
2023/04/18 02:49:36;;;;;;;24.23;22.25;;;;;;;12.63;68.60;100848.03;5014747;28;97393;-82
2023/04/18 02:52:02;;;;;;;25.50;23.20;;;;;;;12.69;68.79;100855.72;5011193;28;101885;-81
2023/04/18 02:54:27;;;;;;;24.65;22.40;;;;;;;12.66;68.80;100855.81;5013468;28;101000;-82
2023/04/18 02:57:02;;;;;;;24.80;22.60;;;;;;;12.68;68.44;100868.94;5006468;27;97449;-81
2023/04/18 02:59:46;;;;;;;23.27;21.33;;;;;;;12.63;68.18;100860.34;5040765;27;96731;-82
2023/04/18 03:02:32;;;;;;;24.30;22.20;;;;;;;12.64;68.60;100869.97;5012740;28;97730;-82
2023/04/18 03:05:06;;;;;;;24.33;22.33;;;;;;;12.61;68.64;100865.66;5048217;27;99377;-82
2023/04/18 03:07:32;;;;;;;24.63;22.55;;;;;;;12.59;68.57;100866.59;4996102;28;97277;-81
2023/04/18 03:09:58;;;;;;;25.13;23.02;;;;;;;12.51;68.68;100866.00;5014602;28;97492;-81
2023/04/18 03:12:29;;;;;;;23.55;21.65;;;;;;;12.56;68.07;100864.06;5029413;27;101318;-81
2023/04/18 03:14:55;;;;;;;23.35;21.45;;;;;;;12.56;68.77;100858.81;5009716;28;99298;-81
2023/04/18 03:17:20;;;;;;;24.35;22.25;;;;;;;12.44;69.13;100831.13;5011612;28;97055;-82
2023/04/18 03:19:47;;;;;;;22.73;20.92;;;;;;;12.57;68.72;100864.03;5014464;28;97852;-82
2023/04/18 03:22:15;;;;;;;23.92;22.02;;;;;;;12.44;68.98;100841.66;5026521;28;101980;-81
2023/04/18 03:24:51;;;;;;;24.90;22.90;;;;;;;12.56;68.85;100857.03;5016438;27;102169;-81
2023/04/18 03:27:18;;;;;;;24.63;22.63;;;;;;;12.53;68.84;100857.13;5009990;28;97612;-82
2023/04/18 03:29:44;;;;;;;22.98;21.08;;;;;;;12.51;68.61;100851.09;4995901;28;97058;-81
2023/04/18 03:32:11;;;;;;;24.45;22.25;;;;;;;12.51;68.50;100869.53;5011322;28;101616;-81
2023/04/18 03:34:36;;;;;;;25.23;23.08;;;;;;;12.53;68.66;100866.81;5012137;28;100962;-81
2023/04/18 03:37:05;;;;;;;23.38;21.48;;;;;;;12.58;68.57;100867.53;5030066;28;97376;-81
2023/04/18 03:39:35;;;;;;;24.95;22.85;;;;;;;12.44;68.45;100836.38;5047332;27;96894;-81
2023/04/18 03:42:01;;;;;;;22.88;20.98;;;;;;;12.53;68.21;100866.81;5012281;28;101678;-81
2023/04/18 03:44:27;;;;;;;24.58;22.25;;;;;;;12.50;68.41;100873.03;5026084;28;101544;-82
2023/04/18 03:46:53;;;;;;;23.90;21.70;;;;;;;12.50;68.15;100866.91;5045938;27;97244;-81
2023/04/18 03:49:19;;;;;;;23.55;21.67;;;;;;;12.36;68.65;100851.56;5009537;28;97785;-81
2023/04/18 03:51:48;;;;;;;25.52;23.45;;;;;;;12.33;68.55;100854.31;5012085;28;101941;-81
2023/04/18 03:54:15;;;;;;;24.58;22.65;;;;;;;12.34;69.09;100858.69;5039178;27;101021;-81
2023/04/18 03:56:41;;;;;;;24.15;22.13;;;;;;;12.43;69.23;100871.53;4995646;28;97204;-81
2023/04/18 03:59:07;;;;;;;24.75;22.83;;;;;;;12.41;68.79;100871.56;4996944;28;96982;-81
2023/04/18 04:01:33;;;;;;;26.80;24.45;;;;;;;12.38;69.37;100865.56;5000198;28;101017;-82
2023/04/18 04:04:00;;;;;;;25.55;23.10;;;;;;;12.41;68.53;100868.94;5023287;28;100106;-82
2023/04/18 04:06:26;;;;;;;26.27;24.08;;;;;;;12.38;68.79;100870.81;4994884;28;97619;-80
2023/04/18 04:08:53;;;;;;;26.10;23.90;;;;;;;12.38;68.98;100868.19;5012602;28;97168;-81
2023/04/18 04:11:22;;;;;;;26.90;24.60;;;;;;;12.38;69.10;100881.34;4996313;28;101727;-81
2023/04/18 04:13:48;;;;;;;26.20;23.95;;;;;;;12.36;68.96;100870.00;4995768;28;101380;-81
2023/04/18 04:16:18;;;;;;;27.38;25.13;;;;;;;12.24;69.13;100855.47;5012796;28;97448;-81
2023/04/18 04:18:45;;;;;;;27.45;25.15;;;;;;;12.36;68.80;100878.78;5003164;28;97536;-81
2023/04/18 04:21:11;;;;;;;27.88;25.48;;;;;;;12.36;68.76;100888.44;5002322;27;101341;-81
2023/04/18 04:23:55;;;;;;;27.42;25.05;;;;;;;12.29;69.18;100885.16;5025923;28;101151;-81
2023/04/18 04:26:33;;;;;;;29.02;26.40;;;;;;;12.27;69.75;100886.09;5005592;28;96884;-81
2023/04/18 04:29:09;;;;;;;29.40;26.70;;;;;;;12.31;69.13;100890.38;5016765;28;97585;-82
2023/04/18 04:31:37;;;;;;;28.38;25.50;;;;;;;12.34;68.84;100885.88;5025109;27;101239;-81
2023/04/18 04:34:03;;;;;;;29.17;26.50;;;;;;;12.36;68.92;100888.44;5012591;28;101737;-81
2023/04/18 04:36:32;;;;;;;29.95;27.27;;;;;;;12.37;68.23;100892.81;5009178;27;97283;-82
2023/04/18 04:38:58;;;;;;;30.05;27.15;;;;;;;12.31;68.32;100895.63;5008921;28;96960;-82
2023/04/18 04:41:36;;;;;;;29.63;27.00;;;;;;;12.16;69.24;100876.78;4992513;28;101445;-81
2023/04/18 04:44:03;;;;;;;29.02;26.40;;;;;;;12.24;69.26;100902.84;5012926;28;101613;-82
2023/04/18 04:46:32;;;;;;;31.00;28.10;;;;;;;12.20;69.47;100907.34;5016780;28;98183;-82
2023/04/18 04:49:00;;;;;;;30.17;27.38;;;;;;;12.21;68.99;100901.16;5011120;28;97406;-84
2023/04/18 04:51:26;;;;;;;29.92;27.27;;;;;;;12.29;68.70;100911.47;5009180;27;100782;-84
2023/04/18 04:53:52;;;;;;;29.25;26.52;;;;;;;12.14;68.62;100875.13;4997691;28;101299;-84
2023/04/18 04:56:18;;;;;;;28.50;25.90;;;;;;;12.29;67.98;100895.69;5006782;28;96808;-83
2023/04/18 04:58:44;;;;;;;30.38;27.58;;;;;;;12.29;68.33;100910.59;5008118;28;97209;-82
2023/04/18 05:01:36;;;;;;;;;;;;;;;12.22;68.99;100904.69;5008645;28;97702;-82
2023/04/18 05:04:02;;;;;;;29.10;26.17;;;;;;;12.10;68.68;100879.63;5007247;28;101029;-83
2023/04/18 05:06:28;;;;;;;29.67;27.13;;;;;;;12.04;68.66;100894.72;5019208;28;97130;-84
2023/04/18 05:08:55;;;;;;;27.95;25.48;;;;;;;12.09;68.60;100901.56;5007210;28;96985;-83
2023/04/18 05:11:21;;;;;;;27.17;24.88;;;;;;;12.09;68.74;100914.72;5025886;27;102018;-84
2023/04/18 05:13:46;;;;;;;29.40;26.80;;;;;;;12.11;69.31;100912.06;5009046;28;101368;-84
2023/04/18 05:16:12;;;;;;;28.00;25.23;;;;;;;12.04;69.16;100897.34;4994252;28;97391;-83
2023/04/18 05:18:39;;;;;;;28.08;25.58;;;;;;;12.13;69.00;100904.94;5025285;27;97749;-84
2023/04/18 05:21:05;;;;;;;28.80;26.30;;;;;;;12.12;68.78;100909.34;4993738;28;101702;-83
2023/04/18 05:23:31;;;;;;;27.70;25.30;;;;;;;12.13;68.92;100908.47;5011306;28;101807;-82
2023/04/18 05:25:56;;;;;;;27.13;24.77;;;;;;;12.14;69.57;100920.72;5009301;27;97549;-83
2023/04/18 05:28:24;;;;;;;27.23;24.60;;;;;;;11.98;68.81;100895.75;5023298;27;97584;-89
2023/04/18 05:30:50;;;;;;;26.52;24.02;;;;;;;11.96;68.87;100892.34;4998951;28;100642;-86
2023/04/18 05:33:16;;;;;;;27.83;25.48;;;;;;;12.10;69.21;100927.00;5023921;28;100628;-83
2023/04/18 05:35:41;;;;;;;26.90;24.67;;;;;;;12.00;68.86;100920.25;5013401;28;96940;-84
2023/04/18 05:38:07;;;;;;;28.70;25.42;;;;;;;11.99;69.86;100926.44;5028855;27;97226;-84
2023/04/18 05:40:32;;;;;;;29.58;26.38;;;;;;;11.89;69.86;100899.53;5007895;28;101107;-84
2023/04/18 05:42:59;;;;;;;28.73;26.02;;;;;;;11.78;69.35;100891.97;5012411;28;101621;-84
2023/04/18 05:45:25;;;;;;;28.08;25.60;;;;;;;12.00;69.60;100934.28;5026722;27;100215;-86
2023/04/18 05:47:52;;;;;;;29.73;27.10;;;;;;;11.77;69.87;100892.84;5015424;28;96957;-86
2023/04/18 05:50:18;;;;;;;28.33;25.58;;;;;;;11.92;69.90;100907.34;5016349;28;101324;-85
2023/04/18 05:52:44;;;;;;;30.05;27.45;;;;;;;11.91;69.71;100904.75;5017892;28;101329;-85
2023/04/18 05:55:09;;;;;;;28.80;26.20;;;;;;;11.86;69.73;100897.00;5015490;28;96733;-85
2023/04/18 05:57:35;;;;;;;29.45;26.85;;;;;;;12.12;69.79;100926.94;5023279;28;97058;-85
2023/04/18 06:00:00;;;;;;;29.88;27.17;;;;;;;12.15;70.16;100937.34;5010532;27;98308;-86
2023/04/18 06:02:26;;;;;;;28.52;26.13;;;;;;;12.10;70.20;100934.00;5021943;27;101187;-84
2023/04/18 06:04:51;;;;;;;29.33;26.52;;;;;;;11.81;70.58;100898.00;5004848;28;97490;-85
2023/04/18 06:07:17;;;;;;;28.00;25.50;;;;;;;12.13;70.20;100939.16;5023752;28;96947;-85
2023/04/18 06:09:43;;;;;;;27.75;25.25;;;;;;;11.99;70.52;100940.47;5023480;27;101550;-85
2023/04/18 06:12:08;;;;;;;27.35;25.13;;;;;;;11.92;70.50;100927.53;5025772;28;97420;-85
2023/04/18 06:14:34;;;;;;;27.23;24.67;;;;;;;12.07;70.67;100940.25;5034674;27;97775;-85
2023/04/18 06:16:59;;;;;;;27.63;24.95;;;;;;;11.88;70.62;100918.88;4999611;28;96995;-84
2023/04/18 06:19:25;;;;;;;28.50;26.00;;;;;;;11.98;70.91;100946.66;4990865;28;101606;-86
2023/04/18 06:21:51;;;;;;;27.63;25.23;;;;;;;11.82;70.59;100910.28;5011960;28;101870;-85
2023/04/18 06:24:17;;;;;;;27.58;25.30;;;;;;;11.99;71.26;100950.13;5014360;28;96795;-86
2023/04/18 06:26:42;;;;;;;28.63;25.98;;;;;;;11.66;71.16;100894.94;5027008;28;98121;-84
2023/04/18 06:29:08;;;;;;;27.15;24.55;;;;;;;11.95;70.80;100949.34;5014800;28;102121;-85
2023/04/18 06:31:34;;;;;;;27.77;25.35;;;;;;;12.00;71.05;100951.84;5020276;28;97430;-86
2023/04/18 06:33:59;;;;;;;27.55;25.05;;;;;;;12.06;70.25;100956.06;5023955;27;96812;-86
2023/04/18 06:36:26;;;;;;;25.27;22.98;;;;;;;11.93;70.62;100940.66;5021823;27;97275;-86
2023/04/18 06:38:51;;;;;;;27.95;25.38;;;;;;;11.90;71.18;100938.09;5005605;28;101681;-85
2023/04/18 06:41:17;;;;;;;26.67;24.35;;;;;;;12.06;70.90;100958.69;5027898;27;101048;-86
2023/04/18 06:43:42;;;;;;;25.75;23.45;;;;;;;12.07;70.99;100958.66;5013012;28;97255;-85
2023/04/18 06:46:08;;;;;;;25.65;23.35;;;;;;;12.00;70.77;100941.31;5029690;27;96784;-86
2023/04/18 06:48:33;;;;;;;25.95;23.75;;;;;;;12.02;70.69;100965.81;5012431;28;100721;-86
2023/04/18 06:50:59;;;;;;;26.20;23.90;;;;;;;11.84;70.85;100942.63;5030318;27;98262;-86
2023/04/18 06:53:25;;;;;;;26.45;24.15;;;;;;;11.77;71.13;100924.41;5013758;27;97253;-86
2023/04/18 06:55:50;;;;;;;26.10;23.80;;;;;;;12.04;70.71;100974.50;5015190;28;97165;-85
2023/04/18 06:58:16;;;;;;;26.27;23.98;;;;;;;11.87;71.36;100961.00;5009911;28;101916;-86
2023/04/18 07:00:42;;;;;;;25.08;22.88;;;;;;;11.86;70.91;100957.50;5013444;28;101271;-86
2023/04/18 07:03:11;;;;;;;23.70;21.63;;;;;;;11.93;71.26;100964.31;4995043;28;96749;-85
2023/04/18 07:05:37;;;;;;;24.75;22.33;;;;;;;11.78;70.94;100951.59;5027191;28;96871;-86
2023/04/18 07:08:03;;;;;;;26.55;24.15;;;;;;;11.74;71.51;100942.91;5031297;28;97779;-92
2023/04/18 07:10:29;;;;;;;28.35;25.75;;;;;;;11.97;71.50;100973.84;5028821;27;98291;-86
2023/04/18 07:12:54;;;;;;;26.48;24.08;;;;;;;11.91;70.96;100981.06;5044982;27;97511;-88
2023/04/18 07:15:20;;;;;;;28.52;25.90;;;;;;;11.98;70.95;100975.59;5031721;28;97428;-83
2023/04/18 07:17:46;;;;;;;27.05;24.45;;;;;;;11.96;71.17;100989.69;5032167;27;99272;-83
2023/04/18 07:20:11;;;;;;;26.92;24.48;;;;;;;11.94;71.12;100979.19;5007804;28;100650;-78
2023/04/18 07:22:37;;;;;;;27.42;25.08;;;;;;;11.95;71.38;100974.78;5035221;27;97103;-76
2023/04/18 07:25:03;;;;;;;26.85;24.45;;;;;;;12.10;71.43;100989.25;5011213;27;96967;-80
2023/04/18 07:27:28;;;;;;;25.08;22.60;;;;;;;12.13;71.34;100989.16;5006013;27;101820;-82
2023/04/18 07:29:54;;;;;;;23.70;21.52;;;;;;;12.02;70.94;100989.50;5014042;27;101360;-83
2023/04/18 07:32:20;;;;;;;24.85;22.70;;;;;;;12.03;71.40;100996.47;5013140;28;97530;-84
2023/04/18 07:34:45;;;;;;;23.83;21.77;;;;;;;11.97;71.30;100981.72;5010825;28;97352;-83
2023/04/18 07:37:11;;;;;;;22.85;20.85;;;;;;;12.06;70.55;100995.53;5028336;28;98175;-84
2023/04/18 07:39:37;;;;;;;21.85;20.05;;;;;;;11.96;70.46;100992.31;5023675;27;97521;-85
2023/04/18 07:42:03;;;;;;;21.85;19.83;;;;;;;11.91;70.70;100986.31;5010976;28;97352;-85
2023/04/18 07:44:28;;;;;;;22.25;20.23;;;;;;;12.05;70.96;100999.09;5019555;27;97864;-85
2023/04/18 07:46:54;;;;;;;22.67;20.63;;;;;;;11.69;70.80;100957.97;4994058;28;100316;-85
2023/04/18 07:49:19;;;;;;;21.73;19.77;;;;;;;11.98;70.94;101007.16;4994809;28;101200;-85
2023/04/18 07:51:45;;;;;;;20.92;19.23;;;;;;;11.94;71.21;100997.63;5043069;27;97153;-89
2023/04/18 07:54:10;;;;;;;21.63;19.63;;;;;;;11.78;70.96;100968.22;5029034;28;97004;-87
2023/04/18 07:56:36;;;;;;;21.67;19.77;;;;;;;12.07;71.20;101005.13;5029221;28;98623;-87
2023/04/18 07:59:01;;;;;;;21.02;19.13;;;;;;;12.06;70.35;101017.44;5022766;28;98117;-88
2023/04/18 08:01:27;;;;;;;20.98;19.08;;;;;;;12.04;70.68;101021.88;5027943;27;97203;-87
2023/04/18 08:03:53;;;;;;;20.98;19.08;;;;;;;11.86;71.01;100983.81;5012239;28;96904;-88
2023/04/18 08:06:20;;;;;;;19.75;18.00;;;;;;;11.99;70.27;100998.34;5022925;27;97425;-87
2023/04/18 08:08:46;;;;;;;19.27;17.67;;;;;;;11.77;70.66;100960.38;5020226;28;98251;-87
2023/04/18 08:11:11;;;;;;;19.92;18.35;;;;;;;12.14;70.85;101012.81;5010324;28;96811;-88
2023/04/18 08:13:37;;;;;;;20.95;18.80;;;;;;;11.89;70.73;101002.13;5006777;28;96902;-87
2023/04/18 08:16:03;;;;;;;20.88;19.15;;;;;;;11.99;70.99;101008.88;5014931;27;102325;-87
2023/04/18 08:18:28;;;;;;;20.63;18.92;;;;;;;12.08;70.87;101022.69;4985718;28;99883;-88
2023/04/18 08:20:54;;;;;;;20.38;18.77;;;;;;;11.64;70.68;100980.06;5002360;28;97274;-88
2023/04/18 08:23:20;;;;;;;20.10;18.48;;;;;;;11.91;70.83;101016.13;5010855;28;97600;-88
2023/04/18 08:25:46;;;;;;;19.38;17.58;;;;;;;12.02;70.42;101028.97;5009016;28;101445;-88
2023/04/18 08:28:12;;;;;;;20.48;18.73;;;;;;;11.69;70.29;100972.88;5004898;27;100881;-87
2023/04/18 08:30:39;;;;;;;21.17;19.25;;;;;;;11.98;70.86;101032.59;5009380;27;97888;-87
2023/04/18 08:33:04;;;;;;;19.30;17.70;;;;;;;11.82;70.99;101003.19;5026399;27;98535;-87
2023/04/18 08:35:30;;;;;;;20.70;19.00;;;;;;;12.02;70.81;101046.53;5004075;27;100546;-87
2023/04/18 08:37:56;;;;;;;21.33;19.63;;;;;;;11.74;70.70;100998.13;5022885;27;100296;-87
2023/04/18 08:40:21;;;;;;;21.40;19.45;;;;;;;11.76;70.82;101001.59;4998350;28;97248;-88
2023/04/18 08:42:47;;;;;;;21.17;19.38;;;;;;;11.90;71.40;101017.03;4985268;28;96934;-88
2023/04/18 08:45:13;;;;;;;20.73;18.95;;;;;;;11.96;71.10;101048.44;5010640;28;101562;-88
2023/04/18 08:47:40;;;;;;;22.40;20.30;;;;;;;11.90;71.35;101022.28;5035552;27;101752;-87
2023/04/18 08:50:07;;;;;;;21.55;19.67;;;;;;;11.95;71.10;101040.56;5007405;27;97280;-88
2023/04/18 08:52:34;;;;;;;21.15;19.30;;;;;;;11.98;70.88;101040.47;5032484;27;98345;-87
2023/04/18 08:55:01;;;;;;;22.10;20.20;;;;;;;11.87;71.10;101018.88;5032186;27;100345;-87
2023/04/18 08:57:27;;;;;;;23.00;20.90;;;;;;;11.80;71.50;101023.41;5014474;27;100972;-87
2023/04/18 08:59:53;;;;;;;23.55;21.55;;;;;;;12.04;71.18;101052.59;5006350;28;97482;-87
2023/04/18 09:02:22;;;;;;;21.80;20.00;;;;;;;12.04;70.90;101050.81;5010723;28;97154;-87
2023/04/18 09:04:51;;;;;;;23.83;21.77;;;;;;;12.00;71.19;101042.16;5014705;28;101868;-87
2023/04/18 09:07:18;;;;;;;24.23;22.02;;;;;;;11.90;70.76;101018.81;5014860;27;101493;-87
2023/04/18 09:09:49;;;;;;;24.15;21.92;;;;;;;12.05;71.34;101044.69;5012738;28;97272;-88
2023/04/18 09:12:17;;;;;;;23.35;21.10;;;;;;;11.99;71.57;101019.41;5030134;27;96800;-85
2023/04/18 09:14:45;;;;;;;23.65;21.33;;;;;;;12.10;70.90;101041.88;5030776;27;101545;-87
2023/04/18 09:17:13;;;;;;;24.15;22.05;;;;;;;11.79;71.48;101003.28;5015691;27;100648;-86
2023/04/18 09:19:49;;;;;;;24.30;21.90;;;;;;;12.04;71.21;101027.13;5012447;28;97116;-86
2023/04/18 09:22:15;;;;;;;26.50;22.25;;;;;;;12.23;70.96;101045.91;5018707;27;96989;-85
2023/04/18 09:24:56;;;;;;;26.27;23.70;;;;;;;12.26;71.26;101042.31;5036662;27;101786;-86
2023/04/18 09:27:23;;;;;;;25.40;22.95;;;;;;;12.29;70.79;101042.22;5011746;28;102218;-85
2023/04/18 09:29:50;;;;;;;25.63;23.05;;;;;;;12.38;70.75;101034.06;4994243;28;96841;-85
2023/04/18 09:32:27;;;;;;;26.95;23.95;;;;;;;12.36;71.01;101041.13;5048874;27;97839;-86
2023/04/18 09:35:00;;;;;;;25.38;23.17;;;;;;;12.38;70.75;101044.59;4985393;28;101296;-85
2023/04/18 09:37:27;;;;;;;26.15;23.50;;;;;;;12.43;70.51;101022.47;5010666;28;102362;-87
2023/04/18 09:39:54;;;;;;;25.05;22.75;;;;;;;12.57;70.22;101027.31;5042838;27;97310;-86
2023/04/18 09:42:21;;;;;;;25.17;22.70;;;;;;;12.73;70.07;101040.00;4997266;27;97507;-86
2023/04/18 09:45:06;;;;;;;24.02;21.75;;;;;;;12.78;69.84;101033.69;5008567;27;98017;-85
2023/04/18 09:47:33;;;;;;;24.10;21.65;;;;;;;12.86;69.63;101031.66;4995032;28;102147;-85
2023/04/18 09:50:08;;;;;;;24.30;21.98;;;;;;;12.84;69.28;101040.53;5015859;27;96855;-85
2023/04/18 09:52:37;;;;;;;26.02;23.63;;;;;;;12.76;69.16;101027.59;5025233;27;97021;-86
2023/04/18 09:55:05;;;;;;;26.42;23.98;;;;;;;12.77;69.19;101028.44;4995492;28;101268;-86
2023/04/18 09:57:32;;;;;;;25.77;23.20;;;;;;;12.85;69.22;101037.84;5011514;28;100573;-84
2023/04/18 10:00:22;;;;;;;24.60;22.27;;;;;;;12.87;69.25;101046.56;5008957;28;96880;-85
2023/04/18 10:02:53;;;;;;;26.33;23.92;;;;;;;12.71;68.37;101040.03;5000595;28;97281;-85
2023/04/18 10:05:26;;;;;;;24.02;21.48;;;;;;;12.61;68.77;101036.00;5011310;28;100020;-85
2023/04/18 10:07:52;;;;;;;24.48;22.17;;;;;;;12.64;68.88;101042.00;5009195;28;101330;-85
2023/04/18 10:10:18;;;;;;;23.75;21.55;;;;;;;12.74;68.47;101039.09;5009508;28;96954;-85
2023/04/18 10:12:46;;;;;;;23.50;21.30;;;;;;;12.70;68.76;101027.78;5043814;27;98065;-84
2023/04/18 10:15:14;;;;;;;26.80;24.15;;;;;;;12.79;68.93;101038.03;5005998;28;97554;-86
2023/04/18 10:17:44;;;;;;;25.67;23.10;;;;;;;12.81;69.09;101044.13;4995278;27;101585;-86
2023/04/18 10:20:16;;;;;;;25.27;22.80;;;;;;;12.53;68.59;100987.94;5013615;28;97900;-86
2023/04/18 10:22:43;;;;;;;24.55;22.10;;;;;;;12.80;68.71;101031.88;5006855;27;96901;-87
2023/04/18 10:25:10;;;;;;;25.88;23.15;;;;;;;12.80;68.50;101025.72;5024430;27;100474;-86
2023/04/18 10:27:46;;;;;;;26.73;24.13;;;;;;;12.86;68.78;101041.34;5019191;27;100327;-85
2023/04/18 10:30:13;;;;;;;25.42;22.80;;;;;;;12.77;69.18;101021.44;5011284;27;97226;-85
2023/04/18 10:32:39;;;;;;;25.13;22.67;;;;;;;12.86;68.43;101036.09;5016320;28;96922;-85
2023/04/18 10:35:05;;;;;;;27.13;24.40;;;;;;;12.82;68.87;101029.16;5016340;27;98285;-85
2023/04/18 10:37:32;;;;;;;24.45;22.05;;;;;;;12.84;68.77;101014.19;5025532;27;100804;-85
2023/04/18 10:40:01;;;;;;;27.52;23.65;;;;;;;12.97;68.60;101031.31;5013917;27;97217;-85
2023/04/18 10:42:45;;;;;;;26.27;23.48;;;;;;;12.95;68.15;101032.28;5021041;28;97368;-85
2023/04/18 10:45:20;;;;;;;26.20;23.10;;;;;;;12.98;68.36;101029.56;5014167;28;100967;-85
2023/04/18 10:47:46;;;;;;;26.13;23.65;;;;;;;13.01;67.98;101026.81;5023705;27;97846;-85
2023/04/18 10:50:12;;;;;;;25.05;22.55;;;;;;;13.04;68.38;101021.44;5015092;28;96752;-85
2023/04/18 10:52:40;;;;;;;25.65;23.35;;;;;;;13.08;68.53;101023.91;5008527;28;96869;-86
2023/04/18 10:55:15;;;;;;;25.60;22.92;;;;;;;13.11;67.89;101001.84;5003652;27;101326;-85
2023/04/18 10:57:43;;;;;;;24.08;21.88;;;;;;;13.41;68.05;101017.56;5026025;28;98361;-85
2023/04/18 11:00:11;;;;;;;24.73;22.15;;;;;;;13.69;68.43;101014.84;5031938;27;97262;-86
2023/04/18 11:02:37;;;;;;;25.85;22.40;;;;;;;13.82;67.22;101013.50;5023204;27;97559;-85
2023/04/18 11:05:05;;;;;;;25.80;22.83;;;;;;;13.80;66.83;100994.19;5014995;28;100531;-86
2023/04/18 11:07:56;;;;;;;25.58;22.88;;;;;;;13.74;65.77;100978.59;5018643;28;100472;-86
2023/04/18 11:10:25;;;;;;;24.42;21.95;;;;;;;13.97;66.44;101015.56;5013295;27;97454;-85
2023/04/18 11:12:53;;;;;;;24.00;21.73;;;;;;;13.70;65.65;100966.41;5014104;28;97883;-84